sensor_id;sensor_type;location;lat;lon;timestamp;pressure;altitude;pressure_sealevel;temperature;humidity
62011;BME280;47967;51.756;10.174;2023-04-22T04:04:44;99226.53;;;9.99;69.31
62011;BME280;47967;51.756;10.174;2023-04-22T04:08:48;99220.13;;;10.00;69.34
62011;BME280;47967;51.756;10.174;2023-04-22T04:12:51;99217.00;;;10.10;69.09
62011;BME280;47967;51.756;10.174;2023-04-22T04:16:55;99220.13;;;10.00;69.16
62011;BME280;47967;51.756;10.174;2023-04-22T04:21:04;99218.03;;;10.09;69.62
62011;BME280;47967;51.756;10.174;2023-04-22T04:25:12;99224.00;;;10.18;69.02
62011;BME280;47967;51.756;10.174;2023-04-22T04:29:18;99228.16;;;10.27;69.29
62011;BME280;47967;51.756;10.174;2023-04-22T04:33:32;99239.53;;;10.36;69.29
62011;BME280;47967;51.756;10.174;2023-04-22T04:37:36;99240.59;;;10.41;69.65
62011;BME280;47967;51.756;10.174;2023-04-22T04:41:43;99230.34;;;10.64;68.72
62011;BME280;47967;51.756;10.174;2023-04-22T04:45:46;99235.63;;;10.84;68.49
62011;BME280;47967;51.756;10.174;2023-04-22T04:49:53;99228.66;;;11.08;67.39
62011;BME280;47967;51.756;10.174;2023-04-22T04:54:00;99232.28;;;11.27;66.82
62011;BME280;47967;51.756;10.174;2023-04-22T04:58:09;99231.44;;;11.59;65.97
62011;BME280;47967;51.756;10.174;2023-04-22T05:02:11;99236.28;;;11.75;65.85
62011;BME280;47967;51.756;10.174;2023-04-22T05:06:14;99228.06;;;11.89;65.21
62011;BME280;47967;51.756;10.174;2023-04-22T05:10:23;99224.31;;;12.15;64.14
62011;BME280;47967;51.756;10.174;2023-04-22T05:14:26;99219.44;;;12.42;63.44
62011;BME280;47967;51.756;10.174;2023-04-22T05:18:30;99220.94;;;12.57;63.55
62011;BME280;47967;51.756;10.174;2023-04-22T05:22:37;99222.50;;;12.64;63.95
62011;BME280;47967;51.756;10.174;2023-04-22T05:26:43;99222.84;;;12.87;62.59
62011;BME280;47967;51.756;10.174;2023-04-22T05:30:50;99222.69;;;12.81;63.89
62011;BME280;47967;51.756;10.174;2023-04-22T05:34:53;99228.09;;;12.81;62.93
62011;BME280;47967;51.756;10.174;2023-04-22T05:38:56;99222.25;;;12.85;63.69
62011;BME280;47967;51.756;10.174;2023-04-22T05:43:00;99231.56;;;12.89;63.77
62011;BME280;47967;51.756;10.174;2023-04-22T05:47:04;99231.00;;;12.98;62.74
62011;BME280;47967;51.756;10.174;2023-04-22T05:51:06;99224.97;;;13.15;63.34
62011;BME280;47967;51.756;10.174;2023-04-22T05:55:09;99223.22;;;13.21;64.10
62011;BME280;47967;51.756;10.174;2023-04-22T05:59:13;99227.19;;;13.49;62.65
62011;BME280;47967;51.756;10.174;2023-04-22T06:03:17;99222.28;;;13.57;63.41
62011;BME280;47967;51.756;10.174;2023-04-22T06:07:19;99218.50;;;13.70;63.85
62011;BME280;47967;51.756;10.174;2023-04-22T06:11:22;99226.66;;;13.82;64.11
62011;BME280;47967;51.756;10.174;2023-04-22T06:15:27;99225.13;;;13.98;63.01
62011;BME280;47967;51.756;10.174;2023-04-22T06:19:32;99218.84;;;14.33;63.60
62011;BME280;47967;51.756;10.174;2023-04-22T06:23:34;99214.78;;;14.60;61.28
62011;BME280;47967;51.756;10.174;2023-04-22T06:27:37;99213.78;;;14.89;60.24
62011;BME280;47967;51.756;10.174;2023-04-22T06:31:42;99209.41;;;15.17;58.25
62011;BME280;47967;51.756;10.174;2023-04-22T06:35:44;99208.34;;;15.35;56.53
62011;BME280;47967;51.756;10.174;2023-04-22T06:39:48;99210.91;;;15.59;55.95
62011;BME280;47967;51.756;10.174;2023-04-22T06:44:05;99208.38;;;15.87;55.53
62011;BME280;47967;51.756;10.174;2023-04-22T06:48:25;99191.28;;;16.08;55.57
62011;BME280;47967;51.756;10.174;2023-04-22T06:52:52;99189.16;;;16.32;54.83
62011;BME280;47967;51.756;10.174;2023-04-22T06:56:54;99196.25;;;16.33;53.62
62011;BME280;47967;51.756;10.174;2023-04-22T07:00:57;99198.66;;;16.52;53.34
62011;BME280;47967;51.756;10.174;2023-04-22T07:05:01;99202.66;;;16.67;53.15
62011;BME280;47967;51.756;10.174;2023-04-22T07:09:04;99199.72;;;16.73;53.14
62011;BME280;47967;51.756;10.174;2023-04-22T07:13:07;99190.22;;;16.98;52.66
62011;BME280;47967;51.756;10.174;2023-04-22T07:17:10;99192.78;;;17.37;51.94
62011;BME280;47967;51.756;10.174;2023-04-22T07:21:14;99185.25;;;17.50;51.84
62011;BME280;47967;51.756;10.174;2023-04-22T07:25:17;99183.31;;;17.83;50.43
62011;BME280;47967;51.756;10.174;2023-04-22T07:29:19;99182.88;;;17.96;50.02
62011;BME280;47967;51.756;10.174;2023-04-22T07:33:22;99184.53;;;18.02;50.13
62011;BME280;47967;51.756;10.174;2023-04-22T07:37:26;99192.56;;;18.19;50.28
62011;BME280;47967;51.756;10.174;2023-04-22T07:41:29;99192.66;;;18.35;49.36
62011;BME280;47967;51.756;10.174;2023-04-22T07:45:32;99179.53;;;18.37;49.78
62011;BME280;47967;51.756;10.174;2023-04-22T07:49:34;99184.47;;;18.35;50.76
62011;BME280;47967;51.756;10.174;2023-04-22T07:53:39;99192.06;;;18.28;50.00
62011;BME280;47967;51.756;10.174;2023-04-22T07:57:41;99181.41;;;18.26;50.59
62011;BME280;47967;51.756;10.174;2023-04-22T08:01:44;99179.31;;;18.54;49.70
62011;BME280;47967;51.756;10.174;2023-04-22T08:05:47;99172.50;;;18.56;49.72
62011;BME280;47967;51.756;10.174;2023-04-22T08:09:51;99173.06;;;18.59;49.19
62011;BME280;47967;51.756;10.174;2023-04-22T08:13:53;99171.19;;;18.69;49.64
62011;BME280;47967;51.756;10.174;2023-04-22T08:17:56;99173.97;;;18.85;48.62
62011;BME280;47967;51.756;10.174;2023-04-22T08:21:59;99176.72;;;18.80;47.99
62011;BME280;47967;51.756;10.174;2023-04-22T08:26:03;99166.66;;;19.01;48.10
62011;BME280;47967;51.756;10.174;2023-04-22T08:30:06;99167.78;;;19.26;48.88
62011;BME280;47967;51.756;10.174;2023-04-22T08:34:09;99162.59;;;19.24;48.54
62011;BME280;47967;51.756;10.174;2023-04-22T08:38:11;99161.75;;;19.08;48.79
62011;BME280;47967;51.756;10.174;2023-04-22T08:42:16;99153.53;;;19.18;47.78
62011;BME280;47967;51.756;10.174;2023-04-22T08:46:19;99154.66;;;19.43;48.85
62011;BME280;47967;51.756;10.174;2023-04-22T08:50:24;99152.44;;;19.66;48.41
62011;BME280;47967;51.756;10.174;2023-04-22T08:54:27;99152.19;;;19.73;47.03
62011;BME280;47967;51.756;10.174;2023-04-22T08:58:32;99147.25;;;19.85;47.24
62011;BME280;47967;51.756;10.174;2023-04-22T09:02:36;99138.75;;;19.87;46.89
62011;BME280;47967;51.756;10.174;2023-04-22T09:06:39;99131.28;;;20.08;46.60
62011;BME280;47967;51.756;10.174;2023-04-22T09:10:42;99122.69;;;20.40;47.12
62011;BME280;47967;51.756;10.174;2023-04-22T09:14:46;99121.31;;;20.43;46.22
62011;BME280;47967;51.756;10.174;2023-04-22T09:18:49;99122.41;;;20.42;45.99
62011;BME280;47967;51.756;10.174;2023-04-22T09:22:52;99119.25;;;20.74;45.91
62011;BME280;47967;51.756;10.174;2023-04-22T09:26:55;99116.53;;;21.09;46.63
62011;BME280;47967;51.756;10.174;2023-04-22T09:31:01;99126.50;;;21.34;45.93
62011;BME280;47967;51.756;10.174;2023-04-22T09:35:05;99120.72;;;21.36;45.33
62011;BME280;47967;51.756;10.174;2023-04-22T09:39:08;99119.53;;;21.47;45.63
62011;BME280;47967;51.756;10.174;2023-04-22T09:43:11;99131.84;;;21.15;44.96
62011;BME280;47967;51.756;10.174;2023-04-22T09:47:15;99119.91;;;21.35;45.46
62011;BME280;47967;51.756;10.174;2023-04-22T09:51:18;99123.00;;;21.58;44.20
62011;BME280;47967;51.756;10.174;2023-04-22T09:55:20;99113.56;;;21.69;44.89
62011;BME280;47967;51.756;10.174;2023-04-22T09:59:24;99104.75;;;21.72;44.56
62011;BME280;47967;51.756;10.174;2023-04-22T10:03:29;99104.06;;;22.10;44.74
62011;BME280;47967;51.756;10.174;2023-04-22T10:07:32;99108.75;;;21.85;44.39
62011;BME280;47967;51.756;10.174;2023-04-22T10:11:35;99100.84;;;21.79;44.31
62011;BME280;47967;51.756;10.174;2023-04-22T10:15:40;99107.34;;;22.12;44.75
62011;BME280;47967;51.756;10.174;2023-04-22T10:19:46;99095.47;;;22.17;44.25
62011;BME280;47967;51.756;10.174;2023-04-22T10:23:49;99094.63;;;22.41;43.96
62011;BME280;47967;51.756;10.174;2023-04-22T10:27:53;99091.00;;;22.45;43.42
62011;BME280;47967;51.756;10.174;2023-04-22T10:32:03;99092.41;;;22.62;43.38
62011;BME280;47967;51.756;10.174;2023-04-22T10:36:16;99090.84;;;22.75;43.90
62011;BME280;47967;51.756;10.174;2023-04-22T10:40:19;99089.94;;;22.98;43.74
62011;BME280;47967;51.756;10.174;2023-04-22T10:44:27;99074.78;;;23.01;43.17
62011;BME280;47967;51.756;10.174;2023-04-22T10:48:49;99070.69;;;22.98;42.54
62011;BME280;47967;51.756;10.174;2023-04-22T10:52:54;99067.69;;;23.14;42.05
62011;BME280;47967;51.756;10.174;2023-04-22T10:57:00;99059.63;;;23.37;43.61
62011;BME280;47967;51.756;10.174;2023-04-22T11:01:13;99054.00;;;23.42;42.08
62011;BME280;47967;51.756;10.174;2023-04-22T11:05:20;99054.13;;;23.37;41.23
62011;BME280;47967;51.756;10.174;2023-04-22T11:09:27;99045.97;;;23.31;41.02
62011;BME280;47967;51.756;10.174;2023-04-22T11:13:30;99039.25;;;23.52;40.79
62011;BME280;47967;51.756;10.174;2023-04-22T11:17:33;99029.16;;;23.61;40.80
62011;BME280;47967;51.756;10.174;2023-04-22T11:21:35;99030.06;;;24.12;39.38
62011;BME280;47967;51.756;10.174;2023-04-22T11:25:39;99026.28;;;23.80;38.60
62011;BME280;47967;51.756;10.174;2023-04-22T11:29:42;99026.00;;;23.95;38.98
62011;BME280;47967;51.756;10.174;2023-04-22T11:33:44;99026.91;;;24.19;37.91
62011;BME280;47967;51.756;10.174;2023-04-22T11:37:52;99020.06;;;23.88;37.53
62011;BME280;47967;51.756;10.174;2023-04-22T11:41:57;99016.59;;;24.10;38.00
62011;BME280;47967;51.756;10.174;2023-04-22T11:46:00;99011.47;;;24.18;38.35
62011;BME280;47967;51.756;10.174;2023-04-22T11:50:04;99023.03;;;24.06;39.48
62011;BME280;47967;51.756;10.174;2023-04-22T11:54:10;99016.19;;;24.03;39.74
62011;BME280;47967;51.756;10.174;2023-04-22T11:58:15;99016.53;;;24.38;38.65
62011;BME280;47967;51.756;10.174;2023-04-22T12:02:18;99012.28;;;24.69;37.56
62011;BME280;47967;51.756;10.174;2023-04-22T12:06:20;99015.28;;;24.44;38.08
62011;BME280;47967;51.756;10.174;2023-04-22T12:10:23;99012.19;;;24.83;38.24
62011;BME280;47967;51.756;10.174;2023-04-22T12:14:32;99002.94;;;25.01;38.19
62011;BME280;47967;51.756;10.174;2023-04-22T12:18:36;98999.94;;;24.66;36.74
62011;BME280;47967;51.756;10.174;2023-04-22T12:22:39;98989.56;;;24.94;38.29
62011;BME280;47967;51.756;10.174;2023-04-22T12:26:42;98995.03;;;25.08;36.24
62011;BME280;47967;51.756;10.174;2023-04-22T12:30:45;98984.81;;;25.40;36.62
62011;BME280;47967;51.756;10.174;2023-04-22T12:34:48;98983.25;;;25.66;35.59
62011;BME280;47967;51.756;10.174;2023-04-22T12:38:51;98970.63;;;25.91;35.80
62011;BME280;47967;51.756;10.174;2023-04-22T12:42:54;98979.53;;;25.79;35.46
62011;BME280;47967;51.756;10.174;2023-04-22T12:46:58;98977.44;;;25.67;34.79
62011;BME280;47967;51.756;10.174;2023-04-22T12:51:00;98965.47;;;25.40;35.15
62011;BME280;47967;51.756;10.174;2023-04-22T12:55:03;98964.81;;;25.44;35.84
62011;BME280;47967;51.756;10.174;2023-04-22T12:59:06;98960.47;;;25.20;36.19
62011;BME280;47967;51.756;10.174;2023-04-22T13:03:10;98961.78;;;25.54;35.96
62011;BME280;47967;51.756;10.174;2023-04-22T13:07:13;98954.28;;;25.46;36.12
62011;BME280;47967;51.756;10.174;2023-04-22T13:11:17;98957.88;;;25.55;36.30
62011;BME280;47967;51.756;10.174;2023-04-22T13:15:20;98945.97;;;25.05;36.23
62011;BME280;47967;51.756;10.174;2023-04-22T13:19:24;98957.88;;;25.55;35.34
62011;BME280;47967;51.756;10.174;2023-04-22T13:23:27;98949.03;;;26.02;35.77
62011;BME280;47967;51.756;10.174;2023-04-22T13:27:30;98942.22;;;26.78;34.69
62011;BME280;47967;51.756;10.174;2023-04-22T13:31:32;98942.41;;;26.38;33.24
62011;BME280;47967;51.756;10.174;2023-04-22T13:35:36;98926.25;;;26.93;33.58
62011;BME280;47967;51.756;10.174;2023-04-22T13:39:39;98928.00;;;26.97;33.65
62011;BME280;47967;51.756;10.174;2023-04-22T13:43:42;98916.34;;;26.57;33.68
62011;BME280;47967;51.756;10.174;2023-04-22T13:47:44;98915.41;;;26.35;34.04
62011;BME280;47967;51.756;10.174;2023-04-22T13:51:48;98914.91;;;26.24;33.20
62011;BME280;47967;51.756;10.174;2023-04-22T13:55:51;98908.16;;;25.55;34.52
62011;BME280;47967;51.756;10.174;2023-04-22T13:59:53;98893.59;;;24.60;34.04
62011;BME280;47967;51.756;10.174;2023-04-22T14:03:56;98904.94;;;25.21;33.48
62011;BME280;47967;51.756;10.174;2023-04-22T14:08:00;98899.63;;;25.34;33.10
62011;BME280;47967;51.756;10.174;2023-04-22T14:12:03;98899.53;;;25.07;33.50
62011;BME280;47967;51.756;10.174;2023-04-22T14:16:06;98890.06;;;25.40;34.76
62011;BME280;47967;51.756;10.174;2023-04-22T14:20:10;98885.75;;;25.74;34.32
62011;BME280;47967;51.756;10.174;2023-04-22T14:24:15;98877.34;;;25.88;32.45
62011;BME280;47967;51.756;10.174;2023-04-22T14:28:17;98879.13;;;26.19;32.18
62011;BME280;47967;51.756;10.174;2023-04-22T14:32:20;98872.31;;;25.99;32.33
62011;BME280;47967;51.756;10.174;2023-04-22T14:36:25;98883.53;;;26.02;32.68
62011;BME280;47967;51.756;10.174;2023-04-22T14:40:29;98869.22;;;26.00;31.07
62011;BME280;47967;51.756;10.174;2023-04-22T14:44:32;98862.19;;;25.50;33.32
62011;BME280;47967;51.756;10.174;2023-04-22T14:48:34;98874.81;;;25.02;33.66
62011;BME280;47967;51.756;10.174;2023-04-22T14:52:39;98871.75;;;25.04;34.65
62011;BME280;47967;51.756;10.174;2023-04-22T14:56:44;98866.28;;;25.21;35.08
62011;BME280;47967;51.756;10.174;2023-04-22T15:00:46;98871.00;;;25.12;34.67
62011;BME280;47967;51.756;10.174;2023-04-22T15:04:49;98863.16;;;25.05;33.94
62011;BME280;47967;51.756;10.174;2023-04-22T15:08:52;98872.72;;;24.68;34.11
62011;BME280;47967;51.756;10.174;2023-04-22T15:12:55;98863.22;;;24.83;34.87
62011;BME280;47967;51.756;10.174;2023-04-22T15:16:58;98847.06;;;25.48;34.80
62011;BME280;47967;51.756;10.174;2023-04-22T15:21:01;98856.19;;;26.36;33.47
62011;BME280;47967;51.756;10.174;2023-04-22T15:25:06;98834.09;;;26.83;32.75
62011;BME280;47967;51.756;10.174;2023-04-22T15:29:11;98839.56;;;27.61;32.86
62011;BME280;47967;51.756;10.174;2023-04-22T15:33:13;98839.75;;;27.56;32.37
62011;BME280;47967;51.756;10.174;2023-04-22T15:37:16;98831.50;;;27.47;31.32
62011;BME280;47967;51.756;10.174;2023-04-22T15:41:19;98820.03;;;27.27;31.13
62011;BME280;47967;51.756;10.174;2023-04-22T15:45:22;98825.75;;;26.92;32.05
62011;BME280;47967;51.756;10.174;2023-04-22T15:49:25;98831.91;;;26.50;33.10
62011;BME280;47967;51.756;10.174;2023-04-22T15:53:27;98827.13;;;26.12;32.75
62011;BME280;47967;51.756;10.174;2023-04-22T15:57:30;98822.03;;;26.05;33.08
62011;BME280;47967;51.756;10.174;2023-04-22T16:01:37;98815.38;;;26.15;33.62
62011;BME280;47967;51.756;10.174;2023-04-22T16:05:41;98828.53;;;26.01;32.66
62011;BME280;47967;51.756;10.174;2023-04-22T16:09:43;98823.69;;;25.71;34.16
62011;BME280;47967;51.756;10.174;2023-04-22T16:13:46;98826.78;;;25.52;34.56
62011;BME280;47967;51.756;10.174;2023-04-22T16:17:50;98819.16;;;25.00;35.77
62011;BME280;47967;51.756;10.174;2023-04-22T16:21:53;98821.72;;;24.88;35.70
62011;BME280;47967;51.756;10.174;2023-04-22T16:25:56;98805.28;;;25.32;35.21
62011;BME280;47967;51.756;10.174;2023-04-22T16:29:58;98806.13;;;25.76;34.35
62011;BME280;47967;51.756;10.174;2023-04-22T16:34:03;98805.97;;;25.81;34.29
62011;BME280;47967;51.756;10.174;2023-04-22T16:38:06;98800.28;;;25.69;34.18
62011;BME280;47967;51.756;10.174;2023-04-22T16:42:08;98797.50;;;25.86;34.90
62011;BME280;47967;51.756;10.174;2023-04-22T16:46:11;98798.66;;;25.59;34.65
62011;BME280;47967;51.756;10.174;2023-04-22T16:50:15;98790.38;;;25.59;34.48
62011;BME280;47967;51.756;10.174;2023-04-22T16:54:18;98789.53;;;25.50;34.91
62011;BME280;47967;51.756;10.174;2023-04-22T16:58:20;98779.31;;;25.50;34.44
62011;BME280;47967;51.756;10.174;2023-04-22T17:02:23;98783.72;;;25.60;35.08
62011;BME280;47967;51.756;10.174;2023-04-22T17:06:27;98773.94;;;25.71;34.03
62011;BME280;47967;51.756;10.174;2023-04-22T17:10:30;98781.75;;;25.52;33.99
62011;BME280;47967;51.756;10.174;2023-04-22T17:14:32;98776.66;;;25.19;34.02
62011;BME280;47967;51.756;10.174;2023-04-22T17:18:35;98784.56;;;24.94;34.97
62011;BME280;47967;51.756;10.174;2023-04-22T17:22:40;98773.47;;;24.45;35.65
62011;BME280;47967;51.756;10.174;2023-04-22T17:26:42;98774.81;;;24.25;39.72
62011;BME280;47967;51.756;10.174;2023-04-22T17:30:45;98778.53;;;23.75;40.34
62011;BME280;47967;51.756;10.174;2023-04-22T17:34:47;98771.13;;;23.25;40.97
62011;BME280;47967;51.756;10.174;2023-04-22T17:38:51;98775.19;;;22.99;41.49
62011;BME280;47967;51.756;10.174;2023-04-22T17:42:54;98770.53;;;22.72;42.68
62011;BME280;47967;51.756;10.174;2023-04-22T17:46:56;98774.59;;;22.47;42.95
62011;BME280;47967;51.756;10.174;2023-04-22T17:50:59;98782.19;;;22.36;43.69
62011;BME280;47967;51.756;10.174;2023-04-22T17:55:08;98780.97;;;21.95;43.59
62011;BME280;47967;51.756;10.174;2023-04-22T17:59:10;98783.41;;;21.97;43.21
62011;BME280;47967;51.756;10.174;2023-04-22T18:03:13;98793.25;;;21.65;43.09
62011;BME280;47967;51.756;10.174;2023-04-22T18:07:17;98790.41;;;21.51;41.79
62011;BME280;47967;51.756;10.174;2023-04-22T18:11:21;98801.91;;;21.53;41.29
62011;BME280;47967;51.756;10.174;2023-04-22T18:15:24;98816.56;;;21.43;41.59
62011;BME280;47967;51.756;10.174;2023-04-22T18:19:26;98818.59;;;21.37;41.78
62011;BME280;47967;51.756;10.174;2023-04-22T18:23:29;98835.81;;;21.19;42.70
62011;BME280;47967;51.756;10.174;2023-04-22T18:27:33;98838.34;;;21.15;43.22
62011;BME280;47967;51.756;10.174;2023-04-22T18:31:35;98841.91;;;20.91;44.19
62011;BME280;47967;51.756;10.174;2023-04-22T18:35:38;98844.84;;;20.71;44.40
62011;BME280;47967;51.756;10.174;2023-04-22T18:39:42;98856.19;;;20.59;45.47
62011;BME280;47967;51.756;10.174;2023-04-22T18:43:46;98864.22;;;20.50;45.67
62011;BME280;47967;51.756;10.174;2023-04-22T18:47:48;98875.28;;;20.40;46.07
62011;BME280;47967;51.756;10.174;2023-04-22T18:51:51;98866.00;;;20.36;45.71
62011;BME280;47967;51.756;10.174;2023-04-22T18:55:54;98868.22;;;20.34;46.25
62011;BME280;47967;51.756;10.174;2023-04-22T18:59:58;98883.38;;;20.21;46.34
62011;BME280;47967;51.756;10.174;2023-04-22T19:04:00;98875.47;;;20.19;46.69
62011;BME280;47967;51.756;10.174;2023-04-22T19:08:04;98891.69;;;20.05;47.48
62011;BME280;47967;51.756;10.174;2023-04-22T19:12:06;98883.00;;;19.98;48.61
62011;BME280;47967;51.756;10.174;2023-04-22T19:16:16;98883.25;;;20.02;49.28
62011;BME280;47967;51.756;10.174;2023-04-22T19:20:19;98878.34;;;19.98;49.40
62011;BME280;47967;51.756;10.174;2023-04-22T19:24:21;98877.22;;;20.05;49.44
62011;BME280;47967;51.756;10.174;2023-04-22T19:28:24;98878.84;;;20.06;49.65
62011;BME280;47967;51.756;10.174;2023-04-22T19:32:28;98867.59;;;20.07;50.08
62011;BME280;47967;51.756;10.174;2023-04-22T19:36:30;98859.50;;;19.92;52.36
62011;BME280;47967;51.756;10.174;2023-04-22T19:40:33;98859.06;;;19.69;52.25
62011;BME280;47967;51.756;10.174;2023-04-22T19:44:36;98851.50;;;19.56;53.63
62011;BME280;47967;51.756;10.174;2023-04-22T19:48:43;98858.34;;;19.48;53.46
62011;BME280;47967;51.756;10.174;2023-04-22T19:52:46;98846.97;;;19.30;53.05
62011;BME280;47967;51.756;10.174;2023-04-22T19:56:49;98854.09;;;19.21;54.84
62011;BME280;47967;51.756;10.174;2023-04-22T20:00:51;98850.63;;;19.00;55.95
62011;BME280;47967;51.756;10.174;2023-04-22T20:04:56;98849.84;;;18.84;56.70
62011;BME280;47967;51.756;10.174;2023-04-22T20:08:59;98855.84;;;18.76;56.92
62011;BME280;47967;51.756;10.174;2023-04-22T20:13:02;98854.28;;;18.38;58.56
62011;BME280;47967;51.756;10.174;2023-04-22T20:17:06;98846.59;;;17.94;58.23
62011;BME280;47967;51.756;10.174;2023-04-22T20:21:11;98843.34;;;17.92;58.42
62011;BME280;47967;51.756;10.174;2023-04-22T20:25:15;98854.56;;;18.11;56.35
62011;BME280;47967;51.756;10.174;2023-04-22T20:29:19;98846.09;;;18.13;54.33
62011;BME280;47967;51.756;10.174;2023-04-22T20:33:22;98853.47;;;18.28;54.34
62011;BME280;47967;51.756;10.174;2023-04-22T20:37:26;98852.09;;;18.15;53.73
62011;BME280;47967;51.756;10.174;2023-04-22T20:41:35;98853.13;;;17.93;54.91
62011;BME280;47967;51.756;10.174;2023-04-22T20:45:39;98858.06;;;17.91;54.56
62011;BME280;47967;51.756;10.174;2023-04-22T20:49:41;98852.88;;;17.89;54.74
62011;BME280;47967;51.756;10.174;2023-04-22T20:53:45;98854.50;;;17.80;55.58
62011;BME280;47967;51.756;10.174;2023-04-22T20:57:48;98866.22;;;17.70;53.75
